Flight Track Log - Related Links

Times and Time Zones

All times are in EST time to prevent confusion due to time zone crossing. See the ABX2236 flight status page for this flight to view local times or setup timezone preferences in your user account.

Time Position Orientation Groundspeed Altitude Reporting Facility
EST Latitude Longitude Course Direction KTS MPH feet Rate Location/Type
Sat 10:14:17 PM 25.7833 -80.2808 113° Southeast 171 197 800  Level Miami Center
Sat 10:14:54 PM 25.7736 -80.2553 113° Southeast 181 208 2,000 2,020 Climbing Miami Center
Sat 10:15:55 PM 25.7375 -80.1919 122° Southeast 245 282 4,100 2,194 Climbing Miami Center
Sat 10:16:27 PM 25.7044 -80.1728 152° Southeast 261 300 5,400 2,852 Climbing Miami Center
Sat 10:16:56 PM 25.6692 -80.1625 165° South 269 310 7,000 2,800 Climbing Miami Center
Sat 10:17:27 PM 25.6361 -80.1431 152° Southeast 269 310 8,200 3,000 Climbing Miami Center
Sat 10:17:56 PM 25.5989 -80.1306 163° South 277 319 10,000 2,361 Climbing Miami Center
Sat 10:18:28 PM 25.5658 -80.1089 149° Southeast 285 328 10,600 1,226 Climbing Miami Center
Sat 10:19:29 PM 25.4769 -80.0675 157° South 332 382 11,900 1,627 Climbing Miami Center
Sat 10:20:26 PM 25.3756 -80.0233 159° South 367 422 13,800 2,150 Climbing Miami Center
Sat 10:21:29 PM 25.2636 -79.9769 159° South 404 465 16,200 2,182 Climbing Miami Center
Sat 10:22:27 PM 25.1497 -79.9350 162° South 426 490 18,200 1,949 Climbing Miami Center
Sat 10:23:26 PM 25.0294 -79.8883 161° South 447 514 20,000 1,750 Climbing Miami Center
Sat 10:24:27 PM 24.9028 -79.8442 162° South 465 535 21,700 1,636 Climbing Miami Center
Sat 10:25:27 PM 24.7742 -79.7997 163° South 477 549 23,300 1,500 Climbing Miami Center
Sat 10:26:27 PM 24.6414 -79.7508 161° South 495 570 24,700 1,438 Climbing Miami Center
Sat 10:27:28 PM 24.5044 -79.7019 162° South 501 577 26,200 1,721 Climbing Miami Center
Sat 10:28:29 PM 24.3739 -79.6533 161° South 506 582 28,200 1,983 Climbing Miami Center
Sat 10:29:26 PM 24.2389 -79.6094 163° South 506 582 30,100 1,765 Climbing Miami Center
Sat 10:30:28 PM 24.1017 -79.5656 164° South 506 582 31,700 1,548 Climbing Miami Center
Sat 10:32:00 PM 23.9203 -79.4877 162° South  Level FlightAware Approximate
Sat 10:39:00 PM 23.0769 -79.1831 162° South  Level FlightAware Approximate
Sat 10:40:00 PM 22.9563 -79.1399 162° South  Level FlightAware Approximate
Sat 10:41:00 PM 22.8358 -79.0968 162° South  Level FlightAware Approximate
Sat 10:42:00 PM 22.7152 -79.0537 162° South  Level FlightAware Approximate
Sat 10:43:00 PM 22.5946 -79.0107 162° South  Level FlightAware Approximate
Sat 10:44:00 PM 22.4740 -78.9678 162° South  Level FlightAware Approximate
Sat 10:45:00 PM 22.3534 -78.9250 162° South  Level FlightAware Approximate
Sat 10:46:00 PM 22.2328 -78.8823 162° South  Level FlightAware Approximate
Sat 10:47:00 PM 22.1122 -78.8396 162° South  Level FlightAware Approximate
Sat 10:48:00 PM 21.9913 -78.7978 167° South  Level FlightAware Approximate
Sat 10:49:00 PM 21.8677 -78.7668 167° South  Level FlightAware Approximate
Sat 10:50:00 PM 21.7441 -78.7358 167° South  Level FlightAware Approximate
Sat 10:51:00 PM 21.6204 -78.7048 167° South  Level FlightAware Approximate
Sat 10:52:00 PM 21.4968 -78.6739 167° South  Level FlightAware Approximate
Sat 10:53:00 PM 21.3732 -78.6431 167° South  Level FlightAware Approximate
Sat 10:54:00 PM 21.2495 -78.6123 167° South  Level FlightAware Approximate
Sat 10:55:00 PM 21.1259 -78.5816 167° South  Level FlightAware Approximate
Sat 10:56:00 PM 21.0022 -78.5509 167° South  Level FlightAware Approximate
Sat 10:57:00 PM 20.8785 -78.5202 167° South  Level FlightAware Approximate
Sat 10:58:00 PM 20.7549 -78.4897 167° South  Level FlightAware Approximate
Sat 10:59:00 PM 20.6312 -78.4591 167° South  Level FlightAware Approximate
Sat 11:00:00 PM 20.5075 -78.4286 167° South  Level FlightAware Approximate
Sat 11:01:00 PM 20.3838 -78.3982 167° South  Level FlightAware Approximate
Sat 11:02:00 PM 20.2601 -78.3678 167° South  Level FlightAware Approximate
Sat 11:03:00 PM 20.1364 -78.3375 167° South  Level FlightAware Approximate
Sat 11:04:00 PM 20.0127 -78.3072 167° South  Level FlightAware Approximate
Sat 11:05:00 PM 19.8890 -78.2769 167° South  Level FlightAware Approximate
Sat 11:06:00 PM 19.7653 -78.2468 167° South  Level FlightAware Approximate
Sat 11:07:00 PM 19.6416 -78.2166 167° South  Level FlightAware Approximate
Sat 11:08:00 PM 19.5179 -78.1865 167° South  Level FlightAware Approximate
Sat 11:09:00 PM 19.3942 -78.1565 167° South  Level FlightAware Approximate
Sat 11:10:00 PM 19.2704 -78.1264 167° South  Level FlightAware Approximate
Sat 11:11:00 PM 19.1467 -78.0965 167° South  Level FlightAware Approximate
Sat 11:12:00 PM 19.0229 -78.0666 167° South  Level FlightAware Approximate
Sat 11:13:00 PM 18.8992 -78.0367 167° South  Level FlightAware Approximate
Sat 11:14:00 PM 18.7754 -78.0069 167° South  Level FlightAware Approximate
Sat 11:15:00 PM 18.6517 -77.9771 167° South  Level FlightAware Approximate
Sat 11:16:00 PM 18.5279 -77.9473 167° South  Level FlightAware Approximate
Sat 11:17:00 PM 18.4042 -77.9176 167° South  Level FlightAware Approximate
Sat 11:18:00 PM 18.2804 -77.8880 167° South  Level FlightAware Approximate
Sat 11:19:00 PM 18.1566 -77.8584 167° South  Level FlightAware Approximate
Sat 11:20:00 PM 18.0328 -77.8288 167° South  Level FlightAware Approximate
Sat 11:21:00 PM 17.9090 -77.7993 167° South  Level FlightAware Approximate
Sat 11:22:00 PM 17.7853 -77.7698 167° South  Level FlightAware Approximate
Sat 11:23:00 PM 17.6615 -77.7403 167° South  Level FlightAware Approximate
Sat 11:24:00 PM 17.5377 -77.7109 167° South  Level FlightAware Approximate
Sat 11:25:00 PM 17.4139 -77.6815 167° South  Level FlightAware Approximate
Sat 11:26:00 PM 17.2901 -77.6522 167° South  Level FlightAware Approximate
Sat 11:27:00 PM 17.1663 -77.6229 167° South  Level FlightAware Approximate
Sat 11:28:00 PM 17.0424 -77.5937 167° South  Level FlightAware Approximate
Sat 11:29:00 PM 16.9186 -77.5645 167° South  Level FlightAware Approximate
Sat 11:30:00 PM 16.7948 -77.5353 167° South  Level FlightAware Approximate
Sat 11:31:00 PM 16.6710 -77.5062 167° South  Level FlightAware Approximate
Sat 11:32:00 PM 16.5471 -77.4771 167° South  Level FlightAware Approximate
Sat 11:33:00 PM 16.4233 -77.4480 167° South  Level FlightAware Approximate
Sat 11:34:00 PM 16.2995 -77.4190 167° South  Level FlightAware Approximate
Sat 11:35:00 PM 16.1756 -77.3900 167° South  Level FlightAware Approximate
Sat 11:36:00 PM 16.0518 -77.3611 167° South  Level FlightAware Approximate
Sat 11:37:00 PM 15.9279 -77.3322 167° South  Level FlightAware Approximate
Sat 11:38:00 PM 15.8041 -77.3033 167° South  Level FlightAware Approximate
Sat 11:39:00 PM 15.6802 -77.2744 167° South  Level FlightAware Approximate
Sat 11:40:00 PM 15.5563 -77.2456 167° South  Level FlightAware Approximate
Sat 11:41:00 PM 15.4325 -77.2169 167° South  Level FlightAware Approximate
Sat 11:42:00 PM 15.3086 -77.1881 167° South  Level FlightAware Approximate
Sat 11:43:00 PM 15.1847 -77.1594 167° South  Level FlightAware Approximate
Sat 11:44:00 PM 15.0609 -77.1307 167° South  Level FlightAware Approximate
Sat 11:45:00 PM 14.9370 -77.1020 167° South  Level FlightAware Approximate
Sat 11:46:00 PM 14.8132 -77.0732 167° South  Level FlightAware Approximate
Sat 11:47:00 PM 14.6893 -77.0445 167° South  Level FlightAware Approximate
Sat 11:48:00 PM 14.5654 -77.0158 167° South  Level FlightAware Approximate
Sat 11:49:00 PM 14.4416 -76.9871 167° South  Level FlightAware Approximate
Sat 11:50:00 PM 14.3177 -76.9585 167° South  Level FlightAware Approximate
Sat 11:51:00 PM 14.1939 -76.9299 167° South  Level FlightAware Approximate
Sat 11:52:00 PM 14.0700 -76.9013 167° South  Level FlightAware Approximate
Sat 11:53:00 PM 13.9461 -76.8727 167° South  Level FlightAware Approximate
Sat 11:54:00 PM 13.8223 -76.8442 167° South  Level FlightAware Approximate
Sat 11:55:00 PM 13.6984 -76.8157 167° South  Level FlightAware Approximate
Sat 11:56:00 PM 13.5745 -76.7873 167° South  Level FlightAware Approximate
Sat 11:57:00 PM 13.4506 -76.7588 167° South  Level FlightAware Approximate
Sat 11:58:00 PM 13.3267 -76.7304 167° South  Level FlightAware Approximate
Sat 11:59:00 PM 13.2028 -76.7021 167° South  Level FlightAware Approximate
Sun 12:00:00 AM 13.0789 -76.6738 167° South  Level FlightAware Approximate
Sun 12:01:00 AM 12.9550 -76.6455 167° South  Level FlightAware Approximate
Sun 12:02:00 AM 12.8311 -76.6173 167° South  Level FlightAware Approximate
Sun 12:03:00 AM 12.7072 -76.5890 167° South  Level FlightAware Approximate
Sun 12:04:00 AM 12.5833 -76.5609 167° South  Level FlightAware Approximate
Sun 12:05:00 AM 12.4593 -76.5327 167° South  Level FlightAware Approximate
Sun 12:06:00 AM 12.3354 -76.5046 167° South  Level FlightAware Approximate
Sun 12:07:00 AM 12.2115 -76.4764 168° South  Level FlightAware Approximate
Sun 12:08:00 AM 12.0876 -76.4484 168° South  Level FlightAware Approximate
Sun 12:09:00 AM 11.9636 -76.4203 168° South  Level FlightAware Approximate
Sun 12:10:00 AM 11.8397 -76.3923 168° South  Level FlightAware Approximate
Sun 12:11:00 AM 11.7158 -76.3643 168° South  Level FlightAware Approximate
Sun 12:12:00 AM 11.5918 -76.3363 168° South  Level FlightAware Approximate
Sun 12:13:00 AM 11.4679 -76.3083 168° South  Level FlightAware Approximate
Sun 12:14:00 AM 11.3440 -76.2804 168° South  Level FlightAware Approximate
Sun 12:15:00 AM 11.2200 -76.2525 168° South  Level FlightAware Approximate
Sun 12:16:00 AM 11.0961 -76.2246 168° South  Level FlightAware Approximate
Sun 12:17:00 AM 10.9721 -76.1968 168° South  Level FlightAware Approximate
Sun 12:18:00 AM 10.8482 -76.1689 168° South  Level FlightAware Approximate
Sun 12:19:00 AM 10.7242 -76.1411 168° South  Level FlightAware Approximate
Sun 12:20:00 AM 10.6002 -76.1133 168° South  Level FlightAware Approximate
Sun 12:21:00 AM 10.4763 -76.0856 168° South  Level FlightAware Approximate
Sun 12:22:00 AM 10.3523 -76.0578 168° South  Level FlightAware Approximate
Sun 12:23:00 AM 10.2283 -76.0301 168° South  Level FlightAware Approximate
Sun 12:24:00 AM 10.1044 -76.0024 168° South  Level FlightAware Approximate
Sun 12:25:00 AM 9.9804 -75.9747 168° South  Level FlightAware Approximate
Sun 12:26:00 AM 9.8564 -75.9471 168° South  Level FlightAware Approximate
Sun 12:27:00 AM 9.7325 -75.9194 168° South  Level FlightAware Approximate
Sun 12:28:00 AM 9.6085 -75.8918 168° South  Level FlightAware Approximate
Sun 12:29:00 AM 9.4845 -75.8642 168° South  Level FlightAware Approximate
Sun 12:30:00 AM 9.3605 -75.8366 168° South  Level FlightAware Approximate
Sun 12:31:00 AM 9.2365 -75.8091 168° South  Level FlightAware Approximate
Sun 12:32:00 AM 9.1125 -75.7815 168° South  Level FlightAware Approximate
Sun 12:33:00 AM 8.9886 -75.7540 168° South  Level FlightAware Approximate
Sun 12:34:00 AM 8.8646 -75.7265 168° South  Level FlightAware Approximate
Sun 12:35:00 AM 8.7406 -75.6990 168° South  Level FlightAware Approximate
Sun 12:36:00 AM 8.6166 -75.6716 168° South  Level FlightAware Approximate
Sun 12:37:00 AM 8.4926 -75.6441 168° South  Level FlightAware Approximate
Sun 12:38:00 AM 8.3686 -75.6167 168° South  Level FlightAware Approximate
Sun 12:39:00 AM 8.2446 -75.5893 168° South  Level FlightAware Approximate
Sun 12:40:00 AM 8.1206 -75.5619 168° South  Level FlightAware Approximate
Sun 12:41:00 AM 7.9967 -75.5343 167° South  Level FlightAware Approximate
Sun 12:42:00 AM 7.8727 -75.5065 167° South  Level FlightAware Approximate
Sun 12:43:00 AM 7.7488 -75.4788 167° South  Level FlightAware Approximate
Sun 12:44:00 AM 7.6249 -75.4511 167° South  Level FlightAware Approximate
Sun 12:45:00 AM 7.5010 -75.4233 167° South  Level FlightAware Approximate
Sun 12:46:00 AM 7.3770 -75.3956 168° South  Level FlightAware Approximate
Sun 12:47:00 AM 7.2531 -75.3680 168° South  Level FlightAware Approximate
Sun 12:48:00 AM 7.1292 -75.3403 168° South  Level FlightAware Approximate
Sun 12:49:00 AM 7.0053 -75.3126 168° South  Level FlightAware Approximate
Sun 12:50:00 AM 6.8813 -75.2850 168° South  Level FlightAware Approximate
Sun 12:51:00 AM 6.7574 -75.2574 168° South  Level FlightAware Approximate
Sun 12:52:00 AM 6.6335 -75.2298 168° South  Level FlightAware Approximate
Sun 12:53:00 AM 6.5095 -75.2022 168° South  Level FlightAware Approximate
Sun 12:54:00 AM 6.3856 -75.1746 168° South  Level FlightAware Approximate
Sun 12:55:00 AM 6.2617 -75.1470 168° South  Level FlightAware Approximate
Sun 12:56:00 AM 6.1377 -75.1195 168° South  Level FlightAware Approximate
Sun 12:57:00 AM 6.0140 -75.0910 166° South  Level FlightAware Approximate
Sun 12:58:00 AM 5.8895 -75.0663 170° South  Level FlightAware Approximate
Sun 12:59:00 AM 5.7649 -75.0422 168° South  Level FlightAware Approximate
Sun 01:00:00 AM 5.6410 -75.0144 166° South  Level FlightAware Approximate
Sun 01:01:00 AM 5.5178 -74.9836 166° South  Level FlightAware Approximate
Sun 01:02:00 AM 5.3939 -74.9560 168° South  Level FlightAware Approximate
Sun 01:03:00 AM 5.2695 -74.9306 169° South  Level FlightAware Approximate
Sun 01:04:00 AM 5.1721 -74.8679 120° Southeast  Level FlightAware Approximate
Sun 01:05:00 AM 5.1073 -74.7583 122° Southeast  Level FlightAware Approximate
Sun 01:06:00 AM 5.0405 -74.6500 120° Southeast  Level FlightAware Approximate
Sun 01:07:00 AM 4.9761 -74.5403 127° Southeast  Level FlightAware Approximate
Sun 01:08:00 AM 4.9148 -74.4305 124° Southeast  Level FlightAware Approximate
Sun 01:09:00 AM 4.8426 -74.3260 135° Southeast  Level FlightAware Approximate
Sun 01:10:00 AM 4.7698 -74.2264 127° Southeast  Level FlightAware Approximate
Sun 01:11:00 AM 4.7016 -74.1469 127° Southeast  Level Estimated
Sun 01:12:00 AM 4.7016 -74.1469 127° Southeast  Level Estimated
Sun 01:13:00 AM 4.7016 -74.1469 127° Southeast  Level Estimated
Sun 01:14:00 AM 4.7016 -74.1469 127° Southeast  Level Estimated
Sun 01:15:00 AM 4.7016 -74.1469 127° Southeast  Level Estimated
Sun 01:16:00 AM 4.7016 -74.1469 127° Southeast  Level Estimated
Sun 01:17:00 AM 4.7016 -74.1469 127° Southeast  Level Estimated
Sun 01:18:00 AM 4.7016 -74.1469 127° Southeast  Level Estimated
Sun 01:19:00 AM 4.7016 -74.1469 127° Southeast  Level Estimated
Sun 01:20:00 AM 4.7016 -74.1469 127° Southeast  Level Estimated
Sun 01:21:00 AM 4.7016 -74.1469 127° Southeast  Level Estimated
Sun 01:22:00 AM 4.7016 -74.1469 127° Southeast  Level Estimated
Sun 01:23:00 AM 4.7016 -74.1469 127° Southeast  Level Estimated
Sun 01:24:00 AM 4.7016 -74.1469 127° Southeast  Level Estimated
Sun 01:25:00 AM 4.7016 -74.1469 127° Southeast  Level Estimated

Login

Don't have an account? Register now (free) for customized features, flight alerts, and more!